createdAt,value
2023-04-13T00:00:29.329Z,96043.06
2023-04-13T00:02:57.291Z,96051.97
2023-04-13T00:05:25.300Z,96061.75
2023-04-13T00:07:53.247Z,96057.56
2023-04-13T00:10:21.178Z,96047.91
2023-04-13T00:12:49.358Z,96040.63
2023-04-13T00:15:17.804Z,96038.78
2023-04-13T00:17:48.246Z,96038.59
2023-04-13T00:20:16.197Z,96020.38
2023-04-13T00:22:44.723Z,96032.66
2023-04-13T00:25:14.427Z,96023.81
2023-04-13T00:27:43.426Z,96025.75
2023-04-13T00:30:12.575Z,96015.28
2023-04-13T00:32:42.333Z,96020.56
2023-04-13T00:35:13.066Z,96023.06
2023-04-13T00:37:43.218Z,96022.22
2023-04-13T00:40:12.392Z,96020.56
2023-04-13T00:42:40.163Z,96018.88
2023-04-13T00:45:09.577Z,96020.66
2023-04-13T00:47:37.529Z,96016.75
2023-04-13T00:50:07.943Z,96021.13
2023-04-13T00:52:38.452Z,96015.72
2023-04-13T00:55:07.819Z,96017.19
2023-04-13T00:57:36.575Z,96014.22
2023-04-13T01:00:08.644Z,96024.09
2023-04-13T01:02:37.018Z,96018.88
2023-04-13T01:05:06.478Z,96024.09
2023-04-13T01:07:41.604Z,96015.53
2023-04-13T01:10:12.777Z,96007.94
2023-04-13T01:12:43.464Z,96011.38
2023-04-13T01:15:14.657Z,96011.28
2023-04-13T01:17:44.458Z,96015.81
2023-04-13T01:20:14.293Z,96021.31
2023-04-13T01:22:47.145Z,96024.66
2023-04-13T01:25:32.778Z,96022.44
2023-04-13T01:28:07.454Z,96023.38
2023-04-13T01:30:36.165Z,96023.75
2023-04-13T01:33:04.655Z,96014.47
2023-04-13T01:35:32.782Z,96023.66
2023-04-13T01:38:00.998Z,96012.75
2023-04-13T01:40:31.023Z,96007.94
2023-04-13T01:42:59.099Z,95999.28
2023-04-13T01:45:29.972Z,96000.88
2023-04-13T01:48:04.660Z,96015.91
2023-04-13T01:50:35.096Z,96015.81
2023-04-13T01:53:08.148Z,96015.53
2023-04-13T01:55:38.513Z,96004.94
2023-04-13T01:58:07.377Z,96007.44
2023-04-13T02:00:37.244Z,96009.00
2023-04-13T02:03:06.296Z,96005.59
2023-04-13T02:05:35.108Z,96000.66
2023-04-13T02:08:03.815Z,96004.44
2023-04-13T02:10:32.218Z,96011.59
2023-04-13T02:12:59.966Z,96017.66
2023-04-13T02:15:28.023Z,96010.50
2023-04-13T02:17:57.232Z,96010.59
2023-04-13T02:20:25.189Z,96017.38
2023-04-13T02:22:53.011Z,96016.47
2023-04-13T02:25:20.893Z,96016.47
2023-04-13T02:27:48.998Z,96012.88
2023-04-13T02:30:17.393Z,96024.06
2023-04-13T02:32:49.474Z,96022.28
2023-04-13T02:35:20.360Z,96019.59
2023-04-13T02:37:48.980Z,96017.00
2023-04-13T02:40:16.841Z,96006.22
2023-04-13T02:42:44.662Z,96014.56
2023-04-13T02:45:15.535Z,96008.53
2023-04-13T02:47:43.408Z,96016.25
2023-04-13T02:50:12.326Z,96014.78
2023-04-13T02:52:41.492Z,96020.00
2023-04-13T02:55:10.483Z,96013.28
2023-04-13T02:57:38.389Z,95997.66
2023-04-13T03:00:10.764Z,96016.16
2023-04-13T03:02:38.759Z,96014.38
2023-04-13T03:05:07.478Z,96007.31
2023-04-13T03:07:36.382Z,96014.91
2023-04-13T03:10:06.303Z,96017.53
2023-04-13T03:12:34.326Z,96019.22
2023-04-13T03:15:03.841Z,96024.41
2023-04-13T03:17:31.844Z,96019.03
2023-04-13T03:19:59.846Z,96026.53
2023-04-13T03:22:30.623Z,96022.16
2023-04-13T03:24:58.503Z,96019.22
2023-04-13T03:27:27.782Z,96021.13
2023-04-13T03:29:55.597Z,96022.78
2023-04-13T03:32:23.540Z,96024.28
2023-04-13T03:34:51.764Z,96031.03
2023-04-13T03:37:19.862Z,96023.03
2023-04-13T03:39:47.660Z,96033.38
2023-04-13T03:42:15.594Z,96022.31
2023-04-13T03:44:44.903Z,96028.69
2023-04-13T03:47:12.901Z,96036.44
2023-04-13T03:49:40.648Z,96034.53
2023-04-13T03:52:08.461Z,96034.53
2023-04-13T03:54:36.799Z,96039.75
2023-04-13T03:57:04.748Z,96037.88
2023-04-13T03:59:32.611Z,96040.31
2023-04-13T04:02:02.988Z,96034.34
2023-04-13T04:04:30.926Z,96026.00
2023-04-13T04:06:59.452Z,96028.81
2023-04-13T04:09:27.588Z,96029.56
2023-04-13T04:11:55.406Z,96021.84
2023-04-13T04:14:23.795Z,96024.38
2023-04-13T04:16:51.645Z,96020.91
2023-04-13T04:19:20.846Z,96016.72
2023-04-13T04:21:49.901Z,96018.53
2023-04-13T04:24:22.808Z,96019.47
2023-04-13T04:26:51.102Z,96016.84
2023-04-13T04:29:22.203Z,96023.75
2023-04-13T04:31:53.931Z,96026.34
2023-04-13T04:34:23.312Z,96030.59
2023-04-13T04:36:52.050Z,96030.59
2023-04-13T04:39:22.422Z,96011.47
2023-04-13T04:41:54.244Z,96038.41
2023-04-13T04:44:25.173Z,96036.56
2023-04-13T04:46:54.232Z,96040.84
2023-04-13T04:49:23.526Z,96041.47
2023-04-13T04:51:52.046Z,96037.91
2023-04-13T04:54:20.192Z,96050.03
2023-04-13T04:56:48.278Z,96043.88
2023-04-13T04:59:16.058Z,96045.66
2023-04-13T05:01:44.223Z,96041.09
2023-04-13T05:04:12.322Z,96045.47
2023-04-13T05:06:42.833Z,96042.72
2023-04-13T05:09:10.961Z,96040.97
2023-04-13T05:11:39.206Z,96047.00
2023-04-13T05:14:07.073Z,96046.09
2023-04-13T05:16:34.952Z,96046.75
2023-04-13T05:19:05.452Z,96057.16
2023-04-13T05:21:33.842Z,96060.63
2023-04-13T05:24:03.024Z,96058.81
2023-04-13T05:26:31.692Z,96062.38
2023-04-13T05:28:59.719Z,96075.41
2023-04-13T05:31:28.775Z,96078.03
2023-04-13T05:33:56.637Z,96079.66
2023-04-13T05:36:24.428Z,96076.34
2023-04-13T05:38:52.361Z,96081.56
2023-04-13T05:41:21.784Z,96085.72
2023-04-13T05:43:50.097Z,96093.28
2023-04-13T05:46:18.051Z,96089.91
2023-04-13T05:48:45.940Z,96098.28
2023-04-13T05:51:13.816Z,96089.72
2023-04-13T05:53:41.585Z,96094.81
2023-04-13T05:56:10.116Z,96102.47
2023-04-13T05:58:40.084Z,96106.53
2023-04-13T06:01:11.016Z,96105.59
2023-04-13T06:03:39.041Z,96113.31
2023-04-13T06:06:08.698Z,96120.22
2023-04-13T06:08:36.552Z,96109.97
2023-04-13T06:11:04.364Z,96103.91
2023-04-13T06:13:32.706Z,96104.22
2023-04-13T06:16:02.224Z,96104.13
2023-04-13T06:18:30.674Z,96106.22
2023-04-13T06:20:58.916Z,96116.44
2023-04-13T06:23:26.950Z,96123.50
2023-04-13T06:25:55.052Z,96127.88
2023-04-13T06:28:28.929Z,96124.47
2023-04-13T06:30:57.040Z,96125.41
2023-04-13T06:33:26.551Z,96131.47
2023-04-13T06:35:54.334Z,96131.47
2023-04-13T06:38:22.170Z,96135.00
2023-04-13T06:40:49.930Z,96141.13
2023-04-13T06:43:29.085Z,96137.69
2023-04-13T06:46:04.544Z,96141.31
2023-04-13T06:48:33.765Z,96150.81
2023-04-13T06:51:01.707Z,96143.09
2023-04-13T06:53:29.523Z,96143.94
2023-04-13T06:55:57.482Z,96152.69
2023-04-13T06:58:25.479Z,96159.78
2023-04-13T07:00:53.270Z,96151.75
2023-04-13T07:03:21.365Z,96152.69
2023-04-13T07:05:50.741Z,96162.00
2023-04-13T07:08:19.506Z,96163.09
2023-04-13T07:10:47.549Z,96163.75
2023-04-13T07:13:15.319Z,96170.66
2023-04-13T07:15:43.837Z,96170.75
2023-04-13T07:18:11.745Z,96164.78
2023-04-13T07:20:39.880Z,96174.19
2023-04-13T07:23:10.089Z,96171.59
2023-04-13T07:25:38.317Z,96188.16
2023-04-13T07:28:06.498Z,96171.69
2023-04-13T07:30:34.274Z,96173.66
2023-04-13T07:33:02.255Z,96177.09
2023-04-13T07:35:30.571Z,96190.47
2023-04-13T07:37:58.336Z,96177.44
2023-04-13T07:40:27.561Z,96180.59
2023-04-13T07:42:55.362Z,96175.75
2023-04-13T07:45:23.662Z,96186.81
2023-04-13T07:47:53.570Z,96199.94
2023-04-13T07:50:21.758Z,96190.34
2023-04-13T07:52:49.659Z,96190.44
2023-04-13T07:55:17.464Z,96190.56
2023-04-13T07:57:46.658Z,96200.78
2023-04-13T08:00:16.964Z,96203.72
2023-04-13T08:02:45.014Z,96200.28
2023-04-13T08:05:13.381Z,96198.78
2023-04-13T08:07:41.357Z,96210.78
2023-04-13T08:10:10.681Z,96215.06
2023-04-13T08:12:38.553Z,96225.31
2023-04-13T08:15:09.818Z,96224.03
2023-04-13T08:17:38.060Z,96221.50
2023-04-13T08:20:09.384Z,96227.78
2023-04-13T08:22:37.528Z,96226.41
2023-04-13T08:25:06.809Z,96224.03
2023-04-13T08:27:34.639Z,96225.00
2023-04-13T08:30:03.706Z,96230.91
2023-04-13T08:32:32.867Z,96230.50
2023-04-13T08:35:06.750Z,96234.34
2023-04-13T08:37:35.112Z,96230.06
2023-04-13T08:40:05.898Z,96229.59
2023-04-13T08:42:33.936Z,96231.38
2023-04-13T08:45:02.161Z,96232.81
2023-04-13T08:47:30.278Z,96218.78
2023-04-13T08:50:00.172Z,96251.16
2023-04-13T08:52:28.776Z,96244.13
2023-04-13T08:54:57.704Z,96250.44
2023-04-13T08:57:26.096Z,96266.19
2023-04-13T08:59:54.225Z,96260.31
2023-04-13T09:02:26.541Z,96262.13
2023-04-13T09:04:56.072Z,96255.50
2023-04-13T09:07:27.773Z,96267.22
2023-04-13T09:09:57.972Z,96253.44
2023-04-13T09:12:26.126Z,96268.72
2023-04-13T09:14:54.071Z,96266.72
2023-04-13T09:17:26.875Z,96260.25
2023-04-13T09:19:56.252Z,96268.09
2023-04-13T09:22:26.074Z,96265.38
2023-04-13T09:24:53.963Z,96264.97
2023-04-13T09:27:23.444Z,96268.13
2023-04-13T09:29:52.726Z,96275.41
2023-04-13T09:32:21.764Z,96274.63
2023-04-13T09:35:00.048Z,96280.41
2023-04-13T09:37:29.467Z,96263.38
2023-04-13T09:39:57.468Z,96282.19
2023-04-13T09:42:25.296Z,96277.59
2023-04-13T09:44:59.175Z,96274.47
2023-04-13T09:47:36.779Z,96272.28
2023-04-13T09:50:05.783Z,96285.75
2023-04-13T09:52:34.946Z,96286.47
2023-04-13T09:55:02.726Z,96285.34
2023-04-13T09:57:32.607Z,96286.59
2023-04-13T10:00:01.897Z,96282.81
2023-04-13T10:02:30.234Z,96286.91
2023-04-13T10:04:59.134Z,96287.84
2023-04-13T10:07:30.140Z,96281.66
2023-04-13T10:09:59.416Z,96283.75
2023-04-13T10:12:28.164Z,96288.13
2023-04-13T10:15:04.979Z,96286.59
2023-04-13T10:17:47.465Z,96293.09
2023-04-13T10:20:15.993Z,96286.66
2023-04-13T10:22:45.398Z,96277.50
2023-04-13T10:25:29.536Z,96293.75
2023-04-13T10:28:01.125Z,96277.88
2023-04-13T10:30:29.485Z,96282.56
2023-04-13T10:33:05.720Z,96277.03
2023-04-13T10:35:36.993Z,96301.34
2023-04-13T10:38:05.265Z,96282.44
2023-04-13T10:40:44.924Z,96293.41
2023-04-13T10:43:12.751Z,96315.53
2023-04-13T10:45:40.538Z,96308.75
2023-04-13T10:48:08.799Z,96311.75
2023-04-13T10:50:37.859Z,96318.91
2023-04-13T10:53:07.512Z,96309.31
2023-04-13T10:55:35.903Z,96296.72
2023-04-13T10:58:16.377Z,96295.91
2023-04-13T11:00:47.107Z,96281.78
2023-04-13T11:03:16.953Z,96276.81
2023-04-13T11:05:46.133Z,96279.63
2023-04-13T11:08:18.824Z,96280.50
2023-04-13T11:10:51.463Z,96278.16
2023-04-13T11:13:20.991Z,96278.09
2023-04-13T11:15:50.139Z,96281.34
2023-04-13T11:18:25.596Z,96278.28
2023-04-13T11:20:53.553Z,96277.31
2023-04-13T11:23:23.999Z,96279.00
2023-04-13T11:25:56.545Z,96289.81
2023-04-13T11:28:27.176Z,96278.34
2023-04-13T11:30:56.497Z,96288.13
2023-04-13T11:33:28.037Z,96285.75
2023-04-13T11:35:56.464Z,96270.22
2023-04-13T11:38:24.725Z,96277.50
2023-04-13T11:40:58.921Z,96281.19
2023-04-13T11:43:38.024Z,96265.56
2023-04-13T11:46:06.191Z,96282.06
2023-04-13T11:48:34.091Z,96271.69
2023-04-13T11:51:01.914Z,96270.75
2023-04-13T11:53:30.202Z,96259.91
2023-04-13T11:55:58.141Z,96274.72
2023-04-13T11:58:25.870Z,96287.28
2023-04-13T12:00:59.856Z,96279.66
2023-04-13T12:03:46.981Z,96279.16
2023-04-13T12:06:21.109Z,96289.84
2023-04-13T12:08:54.566Z,96303.00
2023-04-13T12:11:41.232Z,96300.22
2023-04-13T12:14:45.982Z,96309.50
2023-04-13T12:19:46.671Z,96312.50
2023-04-13T12:22:15.029Z,96333.59
2023-04-13T12:24:43.221Z,96345.22
2023-04-13T12:27:18.491Z,96337.09
2023-04-13T12:29:47.149Z,96331.16
2023-04-13T12:32:17.325Z,96315.75
2023-04-13T12:34:45.444Z,96315.91
2023-04-13T12:37:13.261Z,96330.66
2023-04-13T12:39:41.675Z,96329.44
2023-04-13T12:42:09.513Z,96303.88
2023-04-13T12:44:37.374Z,96315.16
2023-04-13T12:47:06.264Z,96314.31
2023-04-13T12:49:35.494Z,96310.41
2023-04-13T12:52:03.409Z,96314.88
2023-04-13T12:54:31.341Z,96308.44
2023-04-13T12:56:59.756Z,96320.19
2023-04-13T12:59:27.587Z,96320.56
2023-04-13T13:01:55.454Z,96327.09
2023-04-13T13:04:23.280Z,96320.47
2023-04-13T13:06:52.516Z,96327.03
2023-04-13T13:09:20.827Z,96329.53
2023-04-13T13:11:48.589Z,96325.59
2023-04-13T13:14:16.404Z,96322.75
2023-04-13T13:16:44.319Z,96319.41
2023-04-13T13:19:12.173Z,96323.44
2023-04-13T13:21:39.919Z,96307.88
2023-04-13T13:24:09.481Z,96313.53
2023-04-13T13:27:00.315Z,96326.63
2023-04-13T13:29:25.397Z,96321.72
2023-04-13T13:31:53.262Z,96317.97
2023-04-13T13:34:21.204Z,96312.97
2023-04-13T13:36:49.593Z,96321.34
2023-04-13T13:39:21.367Z,96333.69
2023-04-13T13:41:49.205Z,96333.34
2023-04-13T13:44:17.455Z,96325.66
2023-04-13T13:46:45.288Z,96328.50
2023-04-13T13:49:13.137Z,96320.25
2023-04-13T13:51:40.942Z,96326.47
2023-04-13T13:54:08.716Z,96323.38
2023-04-13T13:56:37.910Z,96312.41
2023-04-13T13:59:06.279Z,96316.91
2023-04-13T14:01:34.260Z,96314.25
2023-04-13T14:04:02.283Z,96307.75
2023-04-13T14:06:30.165Z,96302.72
2023-04-13T14:08:58.320Z,96313.28
2023-04-13T14:11:26.370Z,96318.09
2023-04-13T14:13:55.752Z,96320.75
2023-04-13T14:16:24.211Z,96330.56
2023-04-13T14:18:52.400Z,96330.56
2023-04-13T14:21:21.565Z,96336.31
2023-04-13T14:23:49.793Z,96332.72
2023-04-13T14:26:17.629Z,96345.16
2023-04-13T14:28:45.855Z,96339.53
2023-04-13T14:31:16.159Z,96348.78
2023-04-13T14:33:44.187Z,96360.81
2023-04-13T14:36:15.042Z,96363.56
2023-04-13T14:38:43.365Z,96380.88
2023-04-13T14:41:11.099Z,96367.94
2023-04-13T14:43:38.851Z,96368.66
2023-04-13T14:46:06.712Z,96364.28
2023-04-13T14:48:36.131Z,96357.38
2023-04-13T14:51:03.913Z,96358.44
2023-04-13T14:53:31.709Z,96351.59
2023-04-13T14:55:59.536Z,96352.97
2023-04-13T14:58:27.349Z,96353.91
2023-04-13T15:00:55.505Z,96365.72
2023-04-13T15:03:24.376Z,96364.16
2023-04-13T15:05:58.022Z,96331.81
2023-04-13T15:08:30.421Z,96360.50
2023-04-13T15:10:59.306Z,96365.00
2023-04-13T15:13:27.065Z,96363.69
2023-04-13T15:15:55.259Z,96366.44
2023-04-13T15:18:23.068Z,96372.34
2023-04-13T15:20:50.870Z,96378.19
2023-04-13T15:23:20.289Z,96374.44
2023-04-13T15:25:48.224Z,96375.88
2023-04-13T15:28:15.961Z,96383.06
2023-04-13T15:30:43.888Z,96391.41
2023-04-13T15:33:11.770Z,96391.13
2023-04-13T15:35:39.606Z,96388.69
2023-04-13T15:38:07.990Z,96393.13
2023-04-13T15:40:38.479Z,96395.53
2023-04-13T15:43:06.740Z,96396.34
2023-04-13T15:45:34.554Z,96392.50
2023-04-13T15:48:02.776Z,96395.66
2023-04-13T15:50:30.722Z,96404.19
2023-04-13T15:52:58.477Z,96408.31
2023-04-13T15:55:26.290Z,96407.56
2023-04-13T15:57:57.088Z,96404.56
2023-04-13T16:00:26.202Z,96397.75
2023-04-13T16:02:54.135Z,96398.38
2023-04-13T16:05:22.283Z,96399.03
2023-04-13T16:07:50.099Z,96404.19
2023-04-13T16:10:18.808Z,96407.94
2023-04-13T16:12:47.084Z,96418.59
2023-04-13T16:15:16.531Z,96414.97
2023-04-13T16:17:45.361Z,96423.25
2023-04-13T16:20:20.401Z,96427.94
2023-04-13T16:22:50.632Z,96427.75
2023-04-13T16:25:19.326Z,96437.41
2023-04-13T16:27:48.992Z,96431.69
2023-04-13T16:30:20.986Z,96442.53
2023-04-13T16:32:50.431Z,96428.41
2023-04-13T16:35:18.512Z,96444.00
2023-04-13T16:37:46.299Z,96436.63
2023-04-13T16:40:15.417Z,96439.00
2023-04-13T16:42:43.691Z,96451.78
2023-04-13T16:45:15.063Z,96446.84
2023-04-13T16:47:44.687Z,96460.31
2023-04-13T16:50:13.424Z,96457.44
2023-04-13T16:52:41.457Z,96468.94
2023-04-13T16:55:14.006Z,96464.31
2023-04-13T16:57:42.827Z,96461.78
2023-04-13T17:00:11.642Z,96465.38
2023-04-13T17:02:40.945Z,96462.25
2023-04-13T17:05:11.542Z,96467.41
2023-04-13T17:07:40.219Z,96468.22
2023-04-13T17:10:10.006Z,96472.97
2023-04-13T17:12:37.821Z,96473.63
2023-04-13T17:15:06.543Z,96468.94
2023-04-13T17:17:35.716Z,96477.53
2023-04-13T17:20:03.848Z,96479.84
2023-04-13T17:22:33.069Z,96444.25
2023-04-13T17:25:01.142Z,96480.94
2023-04-13T17:27:28.920Z,96483.00
2023-04-13T17:29:58.044Z,96491.34
2023-04-13T17:32:25.929Z,96499.75
2023-04-13T17:34:53.717Z,96510.50
2023-04-13T17:37:22.382Z,96503.22
2023-04-13T17:39:51.562Z,96501.53
2023-04-13T17:42:19.368Z,96501.19
2023-04-13T17:44:47.280Z,96508.72
2023-04-13T17:47:15.135Z,96507.38
2023-04-13T17:49:42.997Z,96508.81
2023-04-13T17:52:10.834Z,96509.28
2023-04-13T17:54:40.553Z,96507.16
2023-04-13T17:57:09.745Z,96510.75
2023-04-13T17:59:37.538Z,96512.28
2023-04-13T18:02:05.457Z,96513.81
2023-04-13T18:04:33.525Z,96508.31
2023-04-13T18:07:01.751Z,96516.66
2023-04-13T18:09:29.513Z,96520.94
2023-04-13T18:11:57.274Z,96523.53
2023-04-13T18:14:26.401Z,96523.72
2023-04-13T18:16:54.194Z,96532.50
2023-04-13T18:19:21.900Z,96542.63
2023-04-13T18:21:49.771Z,96544.56
2023-04-13T18:24:17.542Z,96546.25
2023-04-13T18:26:45.574Z,96553.00
2023-04-13T18:29:14.078Z,96557.84
2023-04-13T18:31:43.337Z,96559.34
2023-04-13T18:34:14.191Z,96564.09
2023-04-13T18:36:42.320Z,96561.06
2023-04-13T18:39:10.117Z,96571.97
2023-04-13T18:41:40.982Z,96570.50
2023-04-13T18:44:10.025Z,96564.22
2023-04-13T18:46:37.836Z,96569.91
2023-04-13T18:49:07.117Z,96582.50
2023-04-13T18:51:34.977Z,96584.47
2023-04-13T18:54:02.993Z,96588.56
2023-04-13T18:56:30.854Z,96589.22
2023-04-13T18:58:58.692Z,96589.91
2023-04-13T19:01:26.555Z,96588.66
2023-04-13T19:03:54.801Z,96586.25
2023-04-13T19:06:24.060Z,96594.22
2023-04-13T19:08:51.792Z,96586.66
2023-04-13T19:11:20.114Z,96602.16
2023-04-13T19:13:48.238Z,96593.75
2023-04-13T19:16:16.093Z,96597.41
2023-04-13T19:18:43.902Z,96605.69
2023-04-13T19:21:11.663Z,96602.31
2023-04-13T19:23:40.877Z,96602.72
2023-04-13T19:26:08.683Z,96602.81
2023-04-13T19:28:36.461Z,96615.28
2023-04-13T19:31:04.251Z,96611.06
2023-04-13T19:33:33.532Z,96619.41
2023-04-13T19:36:01.822Z,96620.66
2023-04-13T19:38:29.543Z,96611.59
2023-04-13T19:40:58.840Z,96616.22
2023-04-13T19:43:28.153Z,96619.00
2023-04-13T19:45:56.611Z,96620.25
2023-04-13T19:48:24.464Z,96615.84
2023-04-13T19:50:52.223Z,96611.78
2023-04-13T19:53:20.020Z,96620.47
2023-04-13T19:55:47.774Z,96622.41
2023-04-13T19:58:16.911Z,96624.19
2023-04-13T20:00:47.466Z,96625.41
2023-04-13T20:03:15.455Z,96623.91
2023-04-13T20:05:43.282Z,96624.22
2023-04-13T20:08:11.040Z,96624.41
2023-04-13T20:10:38.789Z,96624.69
2023-04-13T20:13:07.059Z,96617.06
2023-04-13T20:15:36.268Z,96624.22
2023-04-13T20:18:07.199Z,96623.47
2023-04-13T20:20:36.930Z,96622.22
2023-04-13T20:23:05.075Z,96627.78
2023-04-13T20:25:32.817Z,96625.34
2023-04-13T20:28:00.684Z,96627.19
2023-04-13T20:30:28.521Z,96627.50
2023-04-13T20:32:57.777Z,96625.13
2023-04-13T20:35:25.693Z,96619.44
2023-04-13T20:37:53.475Z,96616.19
2023-04-13T20:40:27.095Z,96616.56
2023-04-13T20:42:55.276Z,96619.34
2023-04-13T20:45:23.320Z,96609.09
2023-04-13T20:47:53.378Z,96605.91
2023-04-13T20:50:25.696Z,96612.19
2023-04-13T20:52:56.705Z,96606.28
2023-04-13T20:55:24.857Z,96586.31
2023-04-13T20:57:52.633Z,96610.88
2023-04-13T21:00:23.175Z,96601.44
2023-04-13T21:02:53.259Z,96601.78
2023-04-13T21:05:23.148Z,96606.66
2023-04-13T21:07:51.844Z,96595.81
2023-04-13T21:10:19.652Z,96599.28
2023-04-13T21:12:47.479Z,96592.72
2023-04-13T21:15:15.245Z,96605.69
2023-04-13T21:17:43.196Z,96593.78
2023-04-13T21:20:12.751Z,96595.63
2023-04-13T21:22:41.912Z,96596.84
2023-04-13T21:25:10.218Z,96604.91
2023-04-13T21:27:37.991Z,96610.50
2023-04-13T21:30:07.013Z,96611.34
2023-04-13T21:32:34.791Z,96617.59
2023-04-13T21:35:06.263Z,96617.59
2023-04-13T21:37:34.232Z,96608.09
2023-04-13T21:40:04.377Z,96614.22
2023-04-13T21:42:32.181Z,96609.16
2023-04-13T21:44:59.940Z,96615.44
2023-04-13T21:47:28.012Z,96613.81
2023-04-13T21:49:55.885Z,96610.66
2023-04-13T21:52:23.963Z,96623.84
2023-04-13T21:54:51.950Z,96614.13
2023-04-13T21:57:21.415Z,96633.16
2023-04-13T21:59:49.161Z,96629.00
2023-04-13T22:02:17.022Z,96640.06
2023-04-13T22:04:44.852Z,96640.22
2023-04-13T22:07:12.682Z,96637.59
2023-04-13T22:09:40.643Z,96592.28
2023-04-13T22:12:10.634Z,96636.25
2023-04-13T22:14:39.979Z,96639.63
2023-04-13T22:17:07.801Z,96646.97
2023-04-13T22:19:35.820Z,96649.31
2023-04-13T22:22:03.698Z,96648.06
2023-04-13T22:24:31.797Z,96642.25
2023-04-13T22:26:59.875Z,96644.34
2023-04-13T22:29:27.634Z,96647.03
2023-04-13T22:31:58.168Z,96655.97
2023-04-13T22:34:27.228Z,96652.44
2023-04-13T22:36:55.264Z,96623.09
2023-04-13T22:39:23.163Z,96644.75
2023-04-13T22:41:51.278Z,96644.94
2023-04-13T22:44:19.882Z,96641.44
2023-04-13T22:46:50.086Z,96635.00
2023-04-13T22:49:19.529Z,96640.72
2023-04-13T22:51:47.311Z,96642.41
2023-04-13T22:54:18.232Z,96646.78
2023-04-13T22:56:46.993Z,96660.75
2023-04-13T22:59:16.246Z,96652.91
2023-04-13T23:01:44.268Z,96652.69
2023-04-13T23:04:15.149Z,96661.94
2023-04-13T23:06:45.383Z,96662.44
2023-04-13T23:09:13.117Z,96657.03
2023-04-13T23:11:41.136Z,96649.91
2023-04-13T23:14:09.212Z,96653.88
2023-04-13T23:16:37.223Z,96657.97
2023-04-13T23:19:05.129Z,96653.53
2023-04-13T23:21:33.915Z,96653.53
2023-04-13T23:24:03.495Z,96642.09
2023-04-13T23:26:31.229Z,96643.59
2023-04-13T23:28:59.282Z,96629.72
2023-04-13T23:31:27.717Z,96635.34
2023-04-13T23:33:55.576Z,96631.63
2023-04-13T23:36:23.338Z,96637.25
2023-04-13T23:38:51.180Z,96640.63
2023-04-13T23:41:21.165Z,96643.03
2023-04-13T23:43:51.624Z,96644.06
2023-04-13T23:46:19.543Z,96640.53
2023-04-13T23:48:47.472Z,96632.44
2023-04-13T23:51:15.226Z,96635.81
2023-04-13T23:53:42.998Z,96639.50
2023-04-13T23:56:10.797Z,96647.59
2023-04-13T23:58:39.981Z,96646.69
